createdAt,value
2019-03-03T00:04:30.102Z,3.60
2019-03-03T00:14:33.385Z,3.60
2019-03-03T00:24:34.909Z,3.60
2019-03-03T00:34:36.503Z,3.60
2019-03-03T00:44:39.824Z,3.60
2019-03-03T00:54:52.248Z,3.70
2019-03-03T01:04:58.218Z,3.70
2019-03-03T01:15:05.069Z,3.80
2019-03-03T01:25:06.682Z,3.80
2019-03-03T01:35:09.473Z,3.80
2019-03-03T01:45:12.734Z,3.80
2019-03-03T01:55:14.818Z,3.80
2019-03-03T02:05:17.269Z,3.80
2019-03-03T02:15:20.006Z,3.90
2019-03-03T02:25:21.485Z,3.90
2019-03-03T02:35:24.409Z,4.00
2019-03-03T02:45:25.838Z,4.00
2019-03-03T02:55:27.313Z,4.10
2019-03-03T03:05:36.529Z,4.20
2019-03-03T03:15:46.903Z,4.30
2019-03-03T03:25:50.225Z,4.30
2019-03-03T03:35:56.278Z,4.40
2019-03-03T03:46:08.878Z,4.40
2019-03-03T03:56:21.471Z,4.50
2019-03-03T04:06:24.820Z,4.50
2019-03-03T04:16:41.132Z,4.40
2019-03-03T04:26:50.282Z,4.40
2019-03-03T04:36:56.901Z,4.50
2019-03-03T04:47:06.465Z,4.60
2019-03-03T04:57:12.732Z,4.60
2019-03-03T05:07:16.186Z,4.60
2019-03-03T05:17:23.340Z,4.70
2019-03-03T05:27:24.869Z,4.70
2019-03-03T05:37:26.376Z,4.70
2019-03-03T05:47:27.796Z,4.80
2019-03-03T05:57:29.267Z,5.00
2019-03-03T06:07:30.697Z,5.10
2019-03-03T06:17:33.156Z,5.30
2019-03-03T06:27:34.577Z,5.60
2019-03-03T06:37:36.313Z,5.90
2019-03-03T06:47:37.717Z,6.20
2019-03-03T06:57:39.147Z,6.80
2019-03-03T07:07:40.670Z,6.90
2019-03-03T07:17:43.181Z,6.80
2019-03-03T07:27:44.570Z,7.00
2019-03-03T07:37:46.092Z,7.10
2019-03-03T07:47:47.515Z,7.10
2019-03-03T07:57:48.909Z,7.40
2019-03-03T08:07:50.352Z,7.90
2019-03-03T08:17:52.745Z,8.00
2019-03-03T08:27:54.269Z,9.00
2019-03-03T08:37:55.850Z,15.00
2019-03-03T08:48:01.958Z,18.90
2019-03-03T08:58:11.254Z,16.90
2019-03-03T09:08:17.417Z,13.70
2019-03-03T09:18:30.901Z,11.80
2019-03-03T09:28:36.931Z,10.60
2019-03-03T09:38:46.494Z,11.10
2019-03-03T09:48:53.065Z,10.50
2019-03-03T09:59:08.738Z,9.90
2019-03-03T10:20:27.305Z,9.50
2019-03-03T10:30:43.013Z,9.60
2019-03-03T10:41:03.302Z,9.90
2019-03-03T10:51:15.696Z,10.80
2019-03-03T11:01:19.224Z,10.90
2019-03-03T11:11:22.594Z,10.00
2019-03-03T11:21:44.016Z,9.50
2019-03-03T11:31:56.425Z,9.20
2019-03-03T11:42:10.204Z,9.60
2019-03-03T11:52:13.826Z,10.00
2019-03-03T12:02:36.737Z,11.10
2019-03-03T12:12:45.651Z,10.90
2019-03-03T12:23:06.661Z,11.00
2019-03-03T12:33:12.636Z,11.30
2019-03-03T12:43:19.236Z,11.00
2019-03-03T12:53:22.557Z,10.90
2019-03-03T13:03:29.657Z,10.80
2019-03-03T13:13:41.836Z,10.40
2019-03-03T13:23:49.841Z,10.20
2019-03-03T13:34:01.962Z,10.10
2019-03-03T13:44:03.800Z,9.90
2019-03-03T13:54:06.553Z,10.10
2019-03-03T15:02:05.679Z,10.10
2019-03-03T15:12:07.097Z,10.00
2019-03-03T15:22:08.749Z,9.90
2019-03-03T15:32:11.360Z,9.80
2019-03-03T15:42:12.781Z,9.70
2019-03-03T15:52:14.433Z,9.50
2019-03-03T16:02:15.882Z,9.40
2019-03-03T16:12:17.305Z,9.30
2019-03-03T16:22:18.769Z,9.10
2019-03-03T16:32:21.193Z,9.00
2019-03-03T16:42:22.838Z,8.80
2019-03-03T16:52:24.462Z,8.70
2019-03-03T17:02:26.000Z,8.80
2019-03-03T17:12:27.477Z,8.80
2019-03-03T17:22:28.929Z,8.60
2019-03-03T17:32:31.394Z,8.50
2019-03-03T17:42:32.812Z,8.40
2019-03-03T17:52:34.384Z,8.20
2019-03-03T18:02:35.821Z,8.10
2019-03-03T18:12:37.447Z,8.10
2019-03-03T18:22:39.117Z,8.20
2019-03-03T18:32:41.667Z,8.20
2019-03-03T18:42:43.438Z,8.20
2019-03-03T18:52:45.347Z,8.20
2019-03-03T19:02:46.768Z,8.20
2019-03-03T19:12:48.458Z,8.30
2019-03-03T19:22:50.018Z,8.40
2019-03-03T19:33:15.309Z,8.40
2019-03-03T19:43:16.959Z,8.40
2019-03-03T19:53:18.507Z,8.40
2019-03-03T20:03:20.165Z,8.30
2019-03-03T20:13:21.757Z,8.20
2019-03-03T20:23:23.548Z,8.20
2019-03-03T20:33:26.089Z,8.20
2019-03-03T20:43:27.485Z,8.10
2019-03-03T20:53:29.069Z,8.10
2019-03-03T21:03:30.513Z,8.10
2019-03-03T21:13:32.015Z,8.30
2019-03-03T21:23:33.489Z,8.50
2019-03-03T21:33:35.898Z,8.40
2019-03-03T21:43:37.353Z,8.50
2019-03-03T21:53:38.867Z,8.50
2019-03-03T22:03:40.283Z,8.40
2019-03-03T22:13:41.720Z,8.40
2019-03-03T22:23:43.181Z,8.50
2019-03-03T22:33:45.694Z,8.60
2019-03-03T22:43:47.085Z,8.60
2019-03-03T22:53:48.610Z,8.60
2019-03-03T23:03:59.992Z,8.60
2019-03-03T23:14:32.894Z,8.60
2019-03-03T23:24:40.920Z,8.40
2019-03-03T23:34:44.605Z,8.30
2019-03-03T23:44:46.085Z,8.10
2019-03-03T23:54:47.660Z,8.10
